Al Cenac — WDD5445 — position and weather

sailwx.info

Track history (hours):
 
Tides and Currents Weather Stations Pressure Air Temp Water Temp Dewpoint Dewpoint Depression Visibility Wind Speed Wind Dir Waves Ship Positions

Al Cenac

Owner: Caillou Island Towing Co, Inc., Houma, LA. More information available from US FCC via Universal Licensing System and Coast Guard Vessel Documentation Center.

Last reported at 2016-Jun-30 07:34 UTC. Time now 2016-Jun-30 08:48 UTC.
Position N 40°39' W 074°10'.

; draft 10 m.

Type: Tug. MMSI: 367158530.

Date/timePositionNaut miles runAvg speedWind from/ knotsBaromVisibWave heightAir tempDewpointWater temp
2016-Jun-30 07:34N 40°39' W 074°10'0 0.0
2016-Jun-29 22:19N 40°39' W 074°10'1 1.3
2016-Jun-29 21:33N 40°38' W 074°09'1 1.0
2016-Jun-29 20:33N 40°39' W 074°10'0 0.0
2016-Jun-29 19:28N 40°39' W 074°10'0 0.0
2016-Jun-29 18:34N 40°39' W 074°10'1 0.9
2016-Jun-29 17:29N 40°39' W 074°11'1 0.1
2016-Jun-29 10:14N 40°38' W 074°10'0 0.0
2016-Jun-29 09:30N 40°38' W 074°10'0 0.0
2016-Jun-29 08:17N 40°38' W 074°10'0 0.0
2016-Jun-29 07:30N 40°38' W 074°10'0 0.0
2016-Jun-29 06:24N 40°38' W 074°10'0 0.0
2016-Jun-29 05:34N 40°38' W 074°10'0 0.0
2016-Jun-29 02:32N 40°39' W 074°10'0 0.0
2016-Jun-29 01:18N 40°39' W 074°10'0 0.0
2016-Jun-28 23:33N 40°39' W 074°10'0 0.0
2016-Jun-28 16:22N 40°39' W 074°10'3 3.9
2016-Jun-28 15:34N 40°39' W 074°06'3 3.0
2016-Jun-28 14:30N 40°39' W 074°10'0 0.0
2016-Jun-28 13:24N 40°39' W 074°10'0 0.0
2016-Jun-27 13:33N 40°39' W 074°10'0 0.0
2016-Jun-27 12:15N 40°39' W 074°10'0 0.0
2016-Jun-27 09:19N 40°39' W 074°10'0 0.0
2016-Jun-27 08:15N 40°39' W 074°10'0 0.0
2016-Jun-27 07:26N 40°39' W 074°10'0 0.0
2016-Jun-27 05:33N 40°39' W 074°10'1 0.5
2016-Jun-27 03:33N 40°38' W 074°09'1 1.5
2016-Jun-27 02:33N 40°39' W 074°07'3 0.7
2016-Jun-26 21:26N 40°39' W 074°11'1 1.1
2016-Jun-26 20:34N 40°39' W 074°10'0 0.0
2016-Jun-26 19:34N 40°39' W 074°10'0 0.0
2016-Jun-26 18:33N 40°39' W 074°10'0 0.0
2016-Jun-26 17:34N 40°39' W 074°10'0 0.0
2016-Jun-26 16:24N 40°39' W 074°10'2 2.9
2016-Jun-26 15:34N 40°39' W 074°07'2 2.5
2016-Jun-26 14:33N 40°39' W 074°10'0 0.0
2016-Jun-26 13:27N 40°39' W 074°10'0 0.0
2016-Jun-26 12:33N 40°39' W 074°10'1 0.9
2016-Jun-26 11:33N 40°38' W 074°09'4 4.3
2016-Jun-26 10:34N 40°37' W 074°03'2 2.2
2016-Jun-26 09:33N 40°39' W 074°04'0 0.1
2016-Jun-26 08:33N 40°39' W 074°04'2 0.2
2016-Jun-25 20:33N 40°39' W 074°07'1 1.3
2016-Jun-25 19:34N 40°39' W 074°05'5 0.4
2016-Jun-25 06:33N 40°38' W 074°12'1 0.2
2016-Jun-25 01:29N 40°38' W 074°12'1 0.6
2016-Jun-24 23:34N 40°39' W 074°11'1 0.4
2016-Jun-24 21:05N 40°39' W 074°10'0 0.1
2016-Jun-24 16:18N 40°39' W 074°10'2 2.9
2016-Jun-24 15:30N 40°39' W 074°07'4 0.2
2016-Jun-23 17:33N 40°38' W 074°12'1 0.6
2016-Jun-23 16:30N 40°39' W 074°11'1 0.0
2016-Jun-22 16:13N 40°39' W 074°10'5 7.4
2016-Jun-22 15:33N 40°39' W 074°03'5 0.2
2016-Jun-21 19:08N 40°39' W 074°10'0 0.0
2016-Jun-21 14:28N 40°39' W 074°10'0 0.0
2016-Jun-21 12:29N 40°39' W 074°10'0 0.0
2016-Jun-21 10:15N 40°39' W 074°10'0 0.0
2016-Jun-21 09:05N 40°39' W 074°10'0 0.0
2016-Jun-21 08:16N 40°39' W 074°10'0 0.0
2016-Jun-21 07:20N 40°39' W 074°10'0 0.0
2016-Jun-21 06:33N 40°39' W 074°10'6 2.8
2016-Jun-21 04:33N 40°37' W 074°03'0 0.2
2016-Jun-21 03:33N 40°37' W 074°03'4 3.7
2016-Jun-21 02:33N 40°39' W 074°07'2 0.5
2016-Jun-20 21:27N 40°39' W 074°10'0 0.0
2016-Jun-20 18:31N 40°38' W 074°10'0 0.1
2016-Jun-20 17:31N 40°39' W 074°10'0 0.0
2016-Jun-20 16:33N 40°39' W 074°10'0 0.1
2016-Jun-20 15:33N 40°39' W 074°10'0 0.0
2016-Jun-20 14:34N 40°39' W 074°10'0 0.0
2016-Jun-20 13:33N 40°39' W 074°10'0 0.0
2016-Jun-20 12:33N 40°39' W 074°10'0 0.0
2016-Jun-20 11:33N 40°39' W 074°10'0 0.0
2016-Jun-20 10:33N 40°39' W 074°10'0 0.0
2016-Jun-20 09:33N 40°39' W 074°10'0 0.0
2016-Jun-20 08:33N 40°39' W 074°10'  
Track history (hours):
 
Tides and Currents Weather Stations Pressure Air Temp Water Temp Dewpoint Dewpoint Depression Visibility Wind Speed Wind Dir Waves Ship Positions

Al Cenac

Owner: Caillou Island Towing Co, Inc., Houma, LA. More information available from US FCC via Universal Licensing System and Coast Guard Vessel Documentation Center.

Last reported at 2016-Jun-30 07:34 UTC. Time now 2016-Jun-30 08:48 UTC.
Position N 40°39' W 074°10'.

; draft 10 m.

Type: Tug. MMSI: 367158530.

Date/timePositionNaut miles runAvg speedWind from/ knotsBaromVisibWave heightAir tempDewpointWater temp
2016-Jun-30 07:34N 40°39' W 074°10'0 0.0
2016-Jun-29 22:19N 40°39' W 074°10'1 1.3
2016-Jun-29 21:33N 40°38' W 074°09'1 1.0
2016-Jun-29 20:33N 40°39' W 074°10'0 0.0
2016-Jun-29 19:28N 40°39' W 074°10'0 0.0
2016-Jun-29 18:34N 40°39' W 074°10'1 0.9
2016-Jun-29 17:29N 40°39' W 074°11'1 0.1
2016-Jun-29 10:14N 40°38' W 074°10'0 0.0
2016-Jun-29 09:30N 40°38' W 074°10'0 0.0
2016-Jun-29 08:17N 40°38' W 074°10'0 0.0
2016-Jun-29 07:30N 40°38' W 074°10'0 0.0
2016-Jun-29 06:24N 40°38' W 074°10'0 0.0
2016-Jun-29 05:34N 40°38' W 074°10'0 0.0
2016-Jun-29 02:32N 40°39' W 074°10'0 0.0
2016-Jun-29 01:18N 40°39' W 074°10'0 0.0
2016-Jun-28 23:33N 40°39' W 074°10'0 0.0
2016-Jun-28 16:22N 40°39' W 074°10'3 3.9
2016-Jun-28 15:34N 40°39' W 074°06'3 3.0
2016-Jun-28 14:30N 40°39' W 074°10'0 0.0
2016-Jun-28 13:24N 40°39' W 074°10'0 0.0
2016-Jun-27 13:33N 40°39' W 074°10'0 0.0
2016-Jun-27 12:15N 40°39' W 074°10'0 0.0
2016-Jun-27 09:19N 40°39' W 074°10'0 0.0
2016-Jun-27 08:15N 40°39' W 074°10'0 0.0
2016-Jun-27 07:26N 40°39' W 074°10'0 0.0
2016-Jun-27 05:33N 40°39' W 074°10'1 0.5
2016-Jun-27 03:33N 40°38' W 074°09'1 1.5
2016-Jun-27 02:33N 40°39' W 074°07'3 0.7
2016-Jun-26 21:26N 40°39' W 074°11'1 1.1
2016-Jun-26 20:34N 40°39' W 074°10'0 0.0
2016-Jun-26 19:34N 40°39' W 074°10'0 0.0
2016-Jun-26 18:33N 40°39' W 074°10'0 0.0
2016-Jun-26 17:34N 40°39' W 074°10'0 0.0
2016-Jun-26 16:24N 40°39' W 074°10'2 2.9
2016-Jun-26 15:34N 40°39' W 074°07'2 2.5
2016-Jun-26 14:33N 40°39' W 074°10'0 0.0
2016-Jun-26 13:27N 40°39' W 074°10'0 0.0
2016-Jun-26 12:33N 40°39' W 074°10'1 0.9
2016-Jun-26 11:33N 40°38' W 074°09'4 4.3
2016-Jun-26 10:34N 40°37' W 074°03'2 2.2
2016-Jun-26 09:33N 40°39' W 074°04'0 0.1
2016-Jun-26 08:33N 40°39' W 074°04'2 0.2
2016-Jun-25 20:33N 40°39' W 074°07'1 1.3
2016-Jun-25 19:34N 40°39' W 074°05'5 0.4
2016-Jun-25 06:33N 40°38' W 074°12'1 0.2
2016-Jun-25 01:29N 40°38' W 074°12'1 0.6
2016-Jun-24 23:34N 40°39' W 074°11'1 0.4
2016-Jun-24 21:05N 40°39' W 074°10'0 0.1
2016-Jun-24 16:18N 40°39' W 074°10'2 2.9
2016-Jun-24 15:30N 40°39' W 074°07'4 0.2
2016-Jun-23 17:33N 40°38' W 074°12'1 0.6
2016-Jun-23 16:30N 40°39' W 074°11'1 0.0
2016-Jun-22 16:13N 40°39' W 074°10'5 7.4
2016-Jun-22 15:33N 40°39' W 074°03'5 0.2
2016-Jun-21 19:08N 40°39' W 074°10'0 0.0
2016-Jun-21 14:28N 40°39' W 074°10'0 0.0
2016-Jun-21 12:29N 40°39' W 074°10'0 0.0
2016-Jun-21 10:15N 40°39' W 074°10'0 0.0
2016-Jun-21 09:05N 40°39' W 074°10'0 0.0
2016-Jun-21 08:16N 40°39' W 074°10'0 0.0
2016-Jun-21 07:20N 40°39' W 074°10'0 0.0
2016-Jun-21 06:33N 40°39' W 074°10'6 2.8
2016-Jun-21 04:33N 40°37' W 074°03'0 0.2
2016-Jun-21 03:33N 40°37' W 074°03'4 3.7
2016-Jun-21 02:33N 40°39' W 074°07'2 0.5
2016-Jun-20 21:27N 40°39' W 074°10'0 0.0
2016-Jun-20 18:31N 40°38' W 074°10'0 0.1
2016-Jun-20 17:31N 40°39' W 074°10'0 0.0
2016-Jun-20 16:33N 40°39' W 074°10'0 0.1
2016-Jun-20 15:33N 40°39' W 074°10'0 0.0
2016-Jun-20 14:34N 40°39' W 074°10'0 0.0
2016-Jun-20 13:33N 40°39' W 074°10'0 0.0
2016-Jun-20 12:33N 40°39' W 074°10'0 0.0
2016-Jun-20 11:33N 40°39' W 074°10'0 0.0
2016-Jun-20 10:33N 40°39' W 074°10'0 0.0
2016-Jun-20 09:33N 40°39' W 074°10'0 0.0
2016-Jun-20 08:33N 40°39' W 074°10'  

Dump ship's entire track history